createdAt,value
2022-12-18T00:01:35.448Z,63.28
2022-12-18T00:04:06.541Z,60.05
2022-12-18T00:06:35.767Z,57.20
2022-12-18T00:09:04.631Z,63.08
2022-12-18T00:11:32.525Z,49.90
2022-12-18T00:14:01.141Z,52.38
2022-12-18T00:16:31.121Z,53.88
2022-12-18T00:19:01.335Z,57.25
2022-12-18T00:21:32.035Z,56.33
2022-12-18T00:24:00.917Z,58.08
2022-12-18T00:26:32.541Z,55.47
2022-12-18T00:29:10.937Z,51.22
2022-12-18T00:31:39.147Z,53.53
2022-12-18T00:34:07.505Z,52.15
2022-12-18T00:36:36.272Z,52.47
2022-12-18T00:39:05.835Z,47.20
2022-12-18T00:41:52.563Z,49.50
2022-12-18T00:44:20.454Z,55.63
2022-12-18T00:46:49.224Z,47.38
2022-12-18T00:49:20.021Z,41.38
2022-12-18T00:51:48.954Z,44.92
2022-12-18T00:54:17.355Z,42.97
2022-12-18T00:56:49.295Z,42.78
2022-12-18T01:01:47.581Z,40.25
2022-12-18T01:04:15.790Z,44.80
2022-12-18T01:06:46.011Z,40.00
2022-12-18T01:09:13.146Z,49.58
2022-12-18T01:11:40.790Z,48.90
2022-12-18T01:14:08.137Z,42.55
2022-12-18T01:16:36.844Z,48.10
2022-12-18T01:19:05.436Z,40.88
2022-12-18T01:21:32.740Z,52.63
2022-12-18T01:24:04.973Z,46.30
2022-12-18T01:26:32.092Z,47.05
2022-12-18T01:28:59.669Z,43.28
2022-12-18T01:31:30.859Z,47.33
2022-12-18T01:33:59.112Z,34.83
2022-12-18T01:36:36.026Z,40.00
2022-12-18T01:39:07.526Z,42.40
2022-12-18T01:41:54.778Z,42.80
2022-12-18T01:45:14.371Z,44.22
2022-12-18T01:48:01.592Z,44.13
2022-12-18T01:50:41.056Z,39.38
2022-12-18T01:53:19.956Z,42.10
2022-12-18T01:55:56.064Z,39.92
2022-12-18T01:58:38.120Z,37.28
2022-12-18T02:01:05.637Z,45.67
2022-12-18T02:03:33.424Z,42.78
2022-12-18T02:06:28.772Z,44.95
2022-12-18T02:09:13.850Z,50.88
2022-12-18T02:12:00.710Z,38.78
2022-12-18T02:14:56.036Z,37.90
2022-12-18T02:17:44.215Z,38.72
2022-12-18T02:20:28.661Z,40.53
2022-12-18T02:23:48.018Z,46.45
2022-12-18T02:26:39.014Z,33.55
2022-12-18T02:29:17.577Z,37.38
2022-12-18T02:31:56.864Z,35.70
2022-12-18T02:34:31.016Z,46.83
2022-12-18T02:37:03.356Z,35.13
2022-12-18T02:39:33.890Z,42.95
2022-12-18T02:42:08.912Z,32.63
2022-12-18T02:44:45.422Z,29.55
2022-12-18T02:47:17.503Z,36.33
2022-12-18T02:49:50.734Z,34.67
2022-12-18T02:52:38.863Z,40.10
2022-12-18T02:55:20.598Z,33.58
2022-12-18T02:58:00.499Z,33.42
2022-12-18T03:00:58.914Z,34.65
2022-12-18T03:03:43.188Z,32.28
2022-12-18T03:06:24.840Z,27.52
2022-12-18T03:09:00.730Z,31.13
2022-12-18T03:11:53.831Z,32.60
2022-12-18T03:14:24.434Z,32.33
2022-12-18T03:16:57.367Z,30.70
2022-12-18T03:19:30.537Z,31.17
2022-12-18T03:22:04.530Z,40.08
2022-12-18T03:24:41.708Z,28.10
2022-12-18T03:27:19.889Z,35.80
2022-12-18T03:29:58.802Z,26.63
2022-12-18T03:32:34.528Z,36.75
2022-12-18T03:35:06.687Z,27.35
2022-12-18T03:37:37.662Z,27.70
2022-12-18T03:40:07.217Z,36.65
2022-12-18T03:42:56.329Z,27.60
2022-12-18T03:45:42.811Z,27.58
2022-12-18T03:48:18.831Z,27.52
2022-12-18T03:51:01.998Z,28.63
2022-12-18T03:56:17.259Z,28.63
2022-12-18T03:58:48.143Z,25.38
2022-12-18T04:01:32.427Z,22.90
2022-12-18T04:04:03.491Z,29.77
2022-12-18T04:06:38.616Z,26.70
2022-12-18T04:09:06.765Z,23.15
2022-12-18T04:11:38.220Z,26.02
2022-12-18T04:14:07.480Z,21.52
2022-12-18T04:16:35.206Z,22.63
2022-12-18T04:19:05.469Z,21.63
2022-12-18T04:21:38.816Z,29.40
2022-12-18T04:24:06.918Z,22.92
2022-12-18T04:40:14.325Z,22.27
2022-12-18T04:42:45.077Z,27.35
2022-12-18T04:51:00.936Z,24.85
2022-12-18T04:56:11.387Z,16.15
2022-12-18T04:58:41.486Z,20.17
2022-12-18T05:01:10.113Z,22.67
2022-12-18T05:03:38.621Z,23.13
2022-12-18T05:06:07.583Z,24.40
2022-12-18T05:08:35.102Z,19.38
2022-12-18T05:11:09.293Z,21.63
2022-12-18T05:13:39.261Z,22.92
2022-12-18T05:16:07.570Z,20.90
2022-12-18T05:18:35.439Z,22.65
2022-12-18T05:21:03.573Z,22.75
2022-12-18T05:23:34.025Z,19.92
2022-12-18T05:26:04.764Z,26.33
2022-12-18T05:28:35.831Z,17.45
2022-12-18T05:31:05.151Z,19.20
2022-12-18T05:33:36.002Z,20.05
2022-12-18T05:36:07.012Z,27.55
2022-12-18T05:38:37.721Z,20.40
2022-12-18T05:41:07.180Z,18.35
2022-12-18T05:43:37.626Z,17.13
2022-12-18T05:46:16.360Z,20.92
2022-12-18T05:48:45.558Z,23.92
2022-12-18T05:51:16.289Z,18.88
2022-12-18T05:53:44.411Z,19.27
2022-12-18T05:56:16.239Z,23.58
2022-12-18T05:58:44.535Z,18.55
2022-12-18T06:01:17.950Z,17.27
2022-12-18T06:03:45.871Z,18.20
2022-12-18T06:06:27.129Z,19.38
2022-12-18T06:08:55.429Z,19.05
2022-12-18T06:11:26.368Z,19.05
2022-12-18T06:13:59.568Z,19.55
2022-12-18T06:16:29.473Z,19.00
2022-12-18T06:19:02.068Z,26.80
2022-12-18T06:21:31.280Z,19.25
2022-12-18T06:24:53.338Z,22.83
2022-12-18T06:28:03.663Z,27.35
2022-12-18T06:31:09.396Z,20.67
2022-12-18T06:33:41.594Z,19.55
2022-12-18T06:36:14.158Z,16.23
2022-12-18T06:38:44.541Z,23.23
2022-12-18T06:41:18.198Z,17.23
2022-12-18T06:44:04.674Z,25.17
2022-12-18T06:46:48.658Z,23.05
2022-12-18T06:49:19.511Z,23.00
2022-12-18T06:51:57.345Z,27.43
2022-12-18T06:54:24.550Z,22.60
2022-12-18T06:56:52.165Z,19.20
2022-12-18T06:59:19.889Z,26.92
2022-12-18T07:01:47.219Z,18.90
2022-12-18T07:04:14.666Z,19.95
2022-12-18T07:06:41.730Z,22.63
2022-12-18T07:09:08.824Z,24.88
2022-12-18T07:11:36.087Z,30.95
2022-12-18T07:14:03.590Z,21.65
2022-12-18T07:16:30.702Z,25.98
2022-12-18T07:18:57.928Z,26.85
2022-12-18T07:21:26.248Z,21.27
2022-12-18T07:23:53.342Z,26.33
2022-12-18T07:26:22.672Z,33.33
2022-12-18T07:28:50.524Z,32.97
2022-12-18T07:31:22.904Z,27.27
2022-12-18T07:33:51.800Z,23.70
2022-12-18T07:36:19.937Z,17.98
2022-12-18T07:38:53.000Z,27.88
2022-12-18T07:41:20.833Z,28.40
2022-12-18T07:43:49.322Z,22.90
2022-12-18T07:46:17.785Z,27.20
2022-12-18T07:48:49.352Z,20.42
2022-12-18T07:51:19.405Z,26.27
2022-12-18T07:53:46.883Z,25.08
2022-12-18T07:56:29.636Z,30.73
2022-12-18T07:58:59.163Z,23.60
2022-12-18T08:01:27.453Z,22.02
2022-12-18T08:03:54.773Z,25.67
2022-12-18T08:06:22.751Z,29.00
2022-12-18T08:08:53.823Z,25.70
2022-12-18T08:11:21.056Z,28.70
2022-12-18T08:13:48.772Z,32.10
2022-12-18T08:16:17.247Z,32.85
2022-12-18T08:18:44.367Z,42.03
2022-12-18T08:21:15.911Z,32.70
2022-12-18T08:23:44.056Z,44.20
2022-12-18T08:26:13.181Z,37.92
2022-12-18T08:28:41.331Z,35.67
2022-12-18T08:31:20.089Z,39.13
2022-12-18T08:33:56.020Z,41.75
2022-12-18T08:36:25.809Z,34.40
2022-12-18T08:38:54.848Z,36.70
2022-12-18T08:41:22.541Z,35.85
2022-12-18T08:44:09.151Z,33.95
2022-12-18T08:46:40.422Z,46.03
2022-12-18T08:49:10.234Z,39.88
2022-12-18T08:51:37.928Z,38.45
2022-12-18T08:54:06.728Z,45.30
2022-12-18T08:56:37.865Z,34.40
2022-12-18T08:59:05.737Z,39.17
2022-12-18T09:01:33.347Z,43.65
2022-12-18T09:04:03.084Z,34.85
2022-12-18T09:06:30.696Z,40.83
2022-12-18T09:08:58.747Z,41.08
2022-12-18T09:11:29.067Z,40.90
2022-12-18T09:13:58.615Z,42.97
2022-12-18T09:16:32.201Z,45.90
2022-12-18T09:19:03.841Z,48.42
2022-12-18T09:21:35.859Z,38.13
2022-12-18T09:24:52.243Z,43.60
2022-12-18T09:27:33.083Z,41.75
2022-12-18T09:30:00.478Z,38.22
2022-12-18T09:32:27.859Z,44.83
2022-12-18T09:34:55.282Z,41.22
2022-12-18T09:37:22.333Z,43.92
2022-12-18T09:39:49.966Z,41.00
2022-12-18T09:42:23.932Z,52.58
2022-12-18T09:44:54.905Z,51.47
2022-12-18T09:47:25.193Z,50.08
2022-12-18T09:49:59.530Z,50.63
2022-12-18T09:52:40.933Z,41.72
2022-12-18T09:55:37.552Z,43.97
2022-12-18T09:58:10.919Z,45.10
2022-12-18T10:00:38.156Z,42.30
2022-12-18T10:03:13.523Z,55.22
2022-12-18T10:06:12.318Z,52.95
2022-12-18T10:09:42.538Z,51.83
2022-12-18T10:13:04.706Z,53.63
2022-12-18T10:16:25.121Z,58.92
2022-12-18T10:22:15.615Z,57.70
2022-12-18T10:25:17.279Z,49.90
2022-12-18T10:27:44.987Z,46.08
2022-12-18T10:30:19.671Z,52.60
2022-12-18T10:32:46.862Z,44.95
2022-12-18T10:35:30.502Z,38.63
2022-12-18T10:38:17.306Z,46.42
2022-12-18T10:41:05.685Z,45.17
2022-12-18T10:43:35.967Z,40.00
2022-12-18T10:46:15.378Z,44.97
2022-12-18T10:48:59.203Z,44.30
2022-12-18T10:51:42.485Z,43.05
2022-12-18T10:54:30.207Z,40.80
2022-12-18T10:57:38.798Z,36.03
2022-12-18T11:00:25.197Z,47.00
2022-12-18T11:02:53.454Z,39.85
2022-12-18T11:05:35.195Z,40.45
2022-12-18T11:08:03.855Z,43.65
2022-12-18T11:10:38.722Z,39.03
2022-12-18T11:13:31.398Z,33.28
2022-12-18T11:15:59.659Z,35.15
2022-12-18T11:18:37.245Z,44.97
2022-12-18T11:21:14.399Z,39.92
2022-12-18T11:23:53.410Z,42.60
2022-12-18T11:26:22.775Z,45.00
2022-12-18T11:29:10.657Z,43.72
2022-12-18T11:31:38.685Z,44.55
2022-12-18T11:34:32.658Z,40.88
2022-12-18T11:37:06.713Z,32.83
2022-12-18T11:40:02.132Z,39.38
2022-12-18T11:42:59.524Z,40.10
2022-12-18T11:45:42.511Z,42.47
2022-12-18T11:48:42.452Z,41.47
2022-12-18T11:51:27.216Z,49.45
2022-12-18T11:53:54.790Z,43.65
2022-12-18T11:56:43.593Z,40.58
2022-12-18T11:59:42.163Z,44.33
2022-12-18T12:02:36.471Z,38.42
2022-12-18T12:05:29.937Z,41.90
2022-12-18T12:08:30.391Z,35.38
2022-12-18T12:11:18.792Z,39.30
2022-12-18T12:14:19.818Z,40.70
2022-12-18T12:17:02.221Z,39.55
2022-12-18T12:20:07.507Z,32.38
2022-12-18T12:22:58.985Z,36.65
2022-12-18T12:26:12.339Z,41.05
2022-12-18T12:29:03.849Z,35.45
2022-12-18T12:31:59.095Z,41.83
2022-12-18T12:34:40.773Z,41.05
2022-12-18T12:37:30.251Z,38.38
2022-12-18T12:39:58.960Z,34.53
2022-12-18T12:42:55.291Z,44.25
2022-12-18T12:45:38.789Z,46.22
2022-12-18T12:48:17.945Z,40.67
2022-12-18T12:50:49.034Z,41.08
2022-12-18T12:53:32.686Z,39.28
2022-12-18T12:56:00.634Z,39.40
2022-12-18T12:58:58.507Z,43.13
2022-12-18T13:02:07.506Z,36.22
2022-12-18T13:05:20.734Z,44.03
2022-12-18T13:08:07.079Z,46.45
2022-12-18T13:13:54.514Z,43.88
2022-12-18T13:16:25.940Z,42.45
2022-12-18T13:22:32.664Z,47.15
2022-12-18T13:25:00.962Z,41.50
2022-12-18T13:28:01.713Z,41.08
2022-12-18T13:30:35.043Z,40.33
2022-12-18T13:33:17.649Z,44.63
2022-12-18T13:38:36.760Z,39.20
2022-12-18T13:41:29.406Z,45.47
2022-12-18T13:44:21.833Z,39.67
2022-12-18T13:46:53.553Z,42.97
2022-12-18T13:49:38.336Z,30.13
2022-12-18T13:52:23.127Z,41.40
2022-12-18T13:55:03.260Z,43.85
2022-12-18T13:57:39.766Z,43.47
2022-12-18T14:00:32.763Z,38.67
2022-12-18T14:03:02.733Z,46.45
2022-12-18T14:05:39.491Z,44.80
2022-12-18T14:08:17.897Z,36.00
2022-12-18T14:10:50.397Z,45.28
2022-12-18T14:13:43.336Z,46.42
2022-12-18T14:16:16.762Z,33.42
2022-12-18T14:19:01.929Z,43.45
2022-12-18T14:21:36.367Z,42.80
2022-12-18T14:24:25.176Z,38.05
2022-12-18T14:26:53.437Z,42.40
2022-12-18T14:29:32.054Z,39.42
2022-12-18T14:32:18.903Z,36.00
2022-12-18T14:34:55.291Z,41.13
2022-12-18T14:37:27.310Z,39.47
2022-12-18T14:42:40.150Z,33.70
2022-12-18T14:45:55.991Z,39.63
2022-12-18T14:48:37.982Z,41.50
2022-12-18T14:51:17.879Z,34.70
2022-12-18T14:54:05.198Z,38.15
2022-12-18T14:56:43.637Z,33.15
2022-12-18T14:59:25.175Z,45.95
2022-12-18T15:01:53.350Z,40.20
2022-12-18T15:04:36.351Z,32.28
2022-12-18T15:07:18.011Z,41.80
2022-12-18T15:10:18.916Z,40.42
2022-12-18T15:13:02.573Z,41.65
2022-12-18T15:16:29.624Z,39.63
2022-12-18T15:18:59.825Z,37.67
2022-12-18T15:22:32.601Z,45.80
2022-12-18T15:25:34.915Z,37.38
2022-12-18T15:28:02.654Z,40.95
2022-12-18T15:30:30.033Z,40.30
2022-12-18T15:45:45.208Z,42.28
2022-12-18T15:48:28.516Z,41.33
2022-12-18T15:50:59.355Z,37.95
2022-12-18T15:53:34.066Z,59.08
2022-12-18T15:56:19.788Z,46.72
2022-12-18T15:59:03.222Z,43.47
2022-12-18T16:02:18.287Z,49.60
2022-12-18T16:04:55.046Z,43.28
2022-12-18T16:07:25.022Z,44.58
2022-12-18T16:09:53.668Z,54.95
2022-12-18T16:12:25.499Z,41.55
2022-12-18T16:14:53.174Z,26.23
2022-12-18T16:17:21.468Z,39.80
2022-12-18T16:19:51.748Z,38.47
2022-12-18T16:22:23.373Z,41.10
2022-12-18T16:24:54.805Z,51.05
2022-12-18T16:27:23.522Z,51.07
2022-12-18T16:29:51.365Z,48.08
2022-12-18T16:32:23.417Z,44.28
2022-12-18T16:34:51.415Z,42.92
2022-12-18T16:37:22.549Z,44.47
2022-12-18T16:39:49.937Z,45.92
2022-12-18T16:42:21.217Z,53.45
2022-12-18T16:44:52.592Z,46.67
2022-12-18T16:47:20.174Z,56.80
2022-12-18T16:49:53.003Z,49.05
2022-12-18T16:52:21.173Z,54.42
2022-12-18T16:54:49.084Z,49.05
2022-12-18T16:57:21.569Z,40.42
2022-12-18T16:59:53.114Z,54.42
2022-12-18T17:02:27.374Z,50.03
2022-12-18T17:04:59.260Z,48.47
2022-12-18T17:07:31.534Z,46.70
2022-12-18T17:09:58.583Z,38.53
2022-12-18T17:12:26.787Z,46.88
2022-12-18T17:14:54.312Z,48.13
2022-12-18T17:17:22.994Z,49.50
2022-12-18T17:19:52.444Z,50.05
2022-12-18T17:22:23.157Z,51.75
2022-12-18T17:24:50.341Z,43.03
2022-12-18T17:27:17.431Z,52.35
2022-12-18T17:29:48.458Z,50.97
2022-12-18T17:32:17.850Z,41.55
2022-12-18T17:34:50.231Z,42.72
2022-12-18T17:37:20.495Z,44.88
2022-12-18T17:39:47.554Z,41.70
2022-12-18T17:42:15.953Z,56.38
2022-12-18T17:44:44.801Z,43.95
2022-12-18T17:47:13.785Z,45.30
2022-12-18T17:49:41.174Z,49.15
2022-12-18T17:52:08.549Z,48.10
2022-12-18T17:54:39.366Z,57.17
2022-12-18T17:57:06.505Z,48.75
2022-12-18T17:59:33.687Z,52.65
2022-12-18T18:02:01.101Z,46.78
2022-12-18T18:04:28.343Z,43.10
2022-12-18T18:06:55.484Z,44.80
2022-12-18T18:09:22.742Z,42.38
2022-12-18T18:12:08.579Z,39.08
2022-12-18T18:14:35.957Z,45.70
2022-12-18T18:17:04.990Z,46.05
2022-12-18T18:19:33.562Z,49.28
2022-12-18T18:22:01.612Z,46.42
2022-12-18T18:24:30.588Z,42.38
2022-12-18T18:26:59.620Z,48.70
2022-12-18T18:32:11.529Z,50.63
2022-12-18T18:34:38.493Z,54.92
2022-12-18T18:37:06.096Z,46.53
2022-12-18T18:39:33.395Z,45.03
2022-12-18T18:44:51.329Z,41.65
2022-12-18T18:47:18.726Z,34.85
2022-12-18T18:49:46.173Z,36.97
2022-12-18T18:52:13.831Z,45.20
2022-12-18T18:54:57.163Z,37.83
2022-12-18T18:57:30.524Z,40.72
2022-12-18T18:59:57.895Z,36.13
2022-12-18T19:02:25.269Z,44.28
2022-12-18T19:04:52.926Z,31.23
2022-12-18T19:07:29.909Z,32.10
2022-12-18T19:10:04.218Z,29.63
2022-12-18T19:12:51.789Z,34.63
2022-12-18T19:15:19.488Z,26.50
2022-12-18T19:17:47.550Z,31.85
2022-12-18T19:20:16.698Z,40.03
2022-12-18T19:22:48.988Z,34.90
2022-12-18T19:25:35.738Z,33.40
2022-12-18T19:28:07.269Z,34.05
2022-12-18T19:30:40.526Z,31.60
2022-12-18T19:33:34.042Z,43.78
2022-12-18T19:35:54.938Z,47.58
2022-12-18T19:38:22.332Z,38.60
2022-12-18T19:41:04.042Z,37.47
2022-12-18T19:43:32.448Z,31.88
2022-12-18T19:45:59.753Z,36.25
2022-12-18T19:48:26.928Z,30.35
2022-12-18T19:50:54.349Z,38.33
2022-12-18T19:53:21.651Z,39.10
2022-12-18T19:55:48.772Z,34.53
2022-12-18T19:58:17.185Z,29.17
2022-12-18T20:00:45.736Z,34.00
2022-12-18T20:03:23.263Z,36.63
2022-12-18T20:05:52.496Z,37.47
2022-12-18T20:08:19.666Z,44.90
2022-12-18T20:10:48.973Z,40.83
2022-12-18T20:13:17.176Z,35.17
2022-12-18T20:15:45.460Z,34.60
2022-12-18T20:18:12.953Z,38.65
2022-12-18T20:20:40.118Z,33.35
2022-12-18T20:23:07.389Z,28.95
2022-12-18T20:25:34.559Z,38.20
2022-12-18T20:28:01.776Z,41.80
2022-12-18T20:30:28.990Z,42.28
2022-12-18T20:32:56.253Z,32.28
2022-12-18T20:35:23.688Z,32.53
2022-12-18T20:37:51.832Z,41.30
2022-12-18T20:40:20.126Z,40.42
2022-12-18T20:42:47.630Z,34.70
2022-12-18T20:45:14.936Z,40.88
2022-12-18T20:47:42.683Z,46.83
2022-12-18T20:50:10.180Z,31.48
2022-12-18T20:52:37.519Z,37.60
2022-12-18T20:55:06.987Z,36.67
2022-12-18T20:57:34.236Z,44.17
2022-12-18T21:00:02.984Z,33.20
2022-12-18T21:02:30.216Z,28.42
2022-12-18T21:04:57.827Z,34.95
2022-12-18T21:07:25.680Z,38.72
2022-12-18T21:09:52.898Z,39.40
2022-12-18T21:12:40.494Z,37.25
2022-12-18T21:15:11.517Z,27.08
2022-12-18T21:17:44.122Z,32.22
2022-12-18T21:20:18.019Z,32.28
2022-12-18T21:22:50.309Z,32.67
2022-12-18T21:25:17.612Z,37.00
2022-12-18T21:27:44.701Z,35.35
2022-12-18T21:30:13.618Z,31.33
2022-12-18T21:32:41.112Z,19.25
2022-12-18T21:35:08.854Z,33.72
2022-12-18T21:37:36.048Z,27.50
2022-12-18T21:40:04.824Z,39.05
2022-12-18T21:42:56.517Z,32.95
2022-12-18T21:45:23.611Z,45.55
2022-12-18T21:47:50.681Z,40.70
2022-12-18T21:50:17.843Z,35.65
2022-12-18T21:52:44.862Z,46.53
2022-12-18T21:55:11.924Z,43.20
2022-12-18T21:57:39.600Z,38.63
2022-12-18T22:00:18.430Z,16.25
2022-12-18T22:03:12.423Z,37.33
2022-12-18T22:05:49.386Z,27.83
2022-12-18T22:08:19.667Z,38.60
2022-12-18T22:10:47.100Z,47.55
2022-12-18T22:13:14.255Z,42.85
2022-12-18T22:15:41.385Z,46.10
2022-12-18T22:18:08.624Z,44.67
2022-12-18T22:20:35.896Z,38.03
2022-12-18T22:23:05.752Z,45.20
2022-12-18T22:25:39.758Z,51.05
2022-12-18T22:28:25.699Z,49.55
2022-12-18T22:30:55.998Z,42.78
2022-12-18T22:33:27.139Z,57.10
2022-12-18T22:35:54.502Z,47.45
2022-12-18T22:38:21.899Z,33.60
2022-12-18T22:40:48.991Z,47.45
2022-12-18T22:43:16.101Z,39.72
2022-12-18T22:45:47.314Z,38.55
2022-12-18T22:48:14.664Z,39.88
2022-12-18T22:50:43.680Z,41.03
2022-12-18T22:53:10.851Z,30.75
2022-12-18T22:55:38.462Z,40.00
2022-12-18T22:58:05.657Z,47.05
2022-12-18T23:00:32.798Z,41.55
2022-12-18T23:03:01.154Z,46.28
2022-12-18T23:05:32.700Z,46.25
2022-12-18T23:07:59.950Z,36.20
2022-12-18T23:10:28.171Z,45.53
2022-12-18T23:12:55.461Z,51.03
2022-12-18T23:15:47.812Z,49.35
2022-12-18T23:18:15.478Z,42.92
2022-12-18T23:20:42.846Z,43.60
2022-12-18T23:23:10.079Z,44.78
2022-12-18T23:25:37.324Z,55.75
2022-12-18T23:28:04.821Z,37.20
2022-12-18T23:30:32.877Z,51.20
2022-12-18T23:33:00.024Z,38.30
2022-12-18T23:35:27.312Z,26.50
2022-12-18T23:37:58.791Z,46.72
2022-12-18T23:42:54.101Z,46.72
2022-12-18T23:45:21.209Z,49.17
2022-12-18T23:47:51.226Z,54.58
2022-12-18T23:50:18.572Z,53.92
2022-12-18T23:52:45.803Z,42.58
2022-12-18T23:55:12.946Z,43.33
2022-12-18T23:57:40.012Z,47.15
